createdAt,value
2017-06-10T00:00:20.959Z,0
2017-06-10T00:01:29.923Z,0
2017-06-10T00:02:39.344Z,0
2017-06-10T00:03:48.944Z,0
2017-06-10T00:04:59.201Z,0
2017-06-10T00:06:08.588Z,0
2017-06-10T00:07:18.177Z,0
2017-06-10T00:08:27.819Z,0
2017-06-10T00:09:37.829Z,0
2017-06-10T00:10:47.239Z,0
2017-06-10T00:11:56.199Z,0
2017-06-10T00:13:19.859Z,0
2017-06-10T00:14:43.280Z,0
2017-06-10T00:16:07.267Z,0
2017-06-10T00:17:21.180Z,0
2017-06-10T00:18:30.902Z,0
2017-06-10T00:19:40.621Z,0
2017-06-10T00:20:50.090Z,0
2017-06-10T00:21:59.929Z,0
2017-06-10T00:23:09.248Z,0
2017-06-10T00:24:18.200Z,0
2017-06-10T00:25:27.161Z,0
2017-06-10T00:26:36.445Z,0
2017-06-10T00:27:45.408Z,0
2017-06-10T00:28:54.367Z,0
2017-06-10T00:30:03.326Z,0
2017-06-10T00:31:12.281Z,0
2017-06-10T00:32:21.684Z,0
2017-06-10T00:33:30.863Z,0
2017-06-10T00:34:39.916Z,0
2017-06-10T00:35:49.002Z,0
2017-06-10T00:36:57.960Z,0
2017-06-10T00:38:06.917Z,0
2017-06-10T00:39:15.889Z,0
2017-06-10T00:40:25.041Z,0
2017-06-10T00:41:33.999Z,0
2017-06-10T00:42:43.152Z,0
2017-06-10T00:43:52.214Z,0
2017-06-10T00:45:01.222Z,0
2017-06-10T00:46:10.208Z,0
2017-06-10T00:47:19.205Z,0
2017-06-10T00:48:28.494Z,0
2017-06-10T00:49:37.594Z,0
2017-06-10T00:50:46.622Z,0
2017-06-10T00:51:55.628Z,0
2017-06-10T00:53:04.623Z,0
2017-06-10T00:54:13.596Z,0
2017-06-10T00:55:22.561Z,0
2017-06-10T00:56:31.541Z,0
2017-06-10T00:57:40.625Z,0
2017-06-10T00:58:49.996Z,0
2017-06-10T00:59:58.949Z,0
2017-06-10T01:01:07.911Z,0
2017-06-10T01:02:16.871Z,0
2017-06-10T01:03:25.920Z,0
2017-06-10T01:04:36.846Z,0
2017-06-10T01:05:46.679Z,0
2017-06-10T01:06:55.645Z,0
2017-06-10T01:08:04.612Z,0
2017-06-10T01:09:13.646Z,0
2017-06-10T01:10:23.033Z,0
2017-06-10T01:11:31.987Z,0
2017-06-10T01:12:41.901Z,0
2017-06-10T01:13:50.866Z,0
2017-06-10T01:15:00.379Z,0
2017-06-10T01:16:09.494Z,0
2017-06-10T01:17:19.290Z,0
2017-06-10T01:18:28.573Z,0
2017-06-10T01:19:38.567Z,0
2017-06-10T01:20:48.886Z,0
2017-06-10T01:21:59.877Z,0
2017-06-10T01:23:10.347Z,0
2017-06-10T01:24:20.070Z,0
2017-06-10T01:25:30.587Z,0
2017-06-10T01:26:44.206Z,0
2017-06-10T01:27:53.164Z,0
2017-06-10T01:29:02.130Z,0
2017-06-10T01:30:13.819Z,0
2017-06-10T01:31:23.325Z,0
2017-06-10T01:32:35.398Z,0
2017-06-10T01:33:47.478Z,0
2017-06-10T01:34:59.289Z,0
2017-06-10T01:36:12.873Z,0
2017-06-10T01:37:29.595Z,0
2017-06-10T01:38:43.534Z,0
2017-06-10T01:39:57.053Z,0
2017-06-10T01:41:06.023Z,0
2017-06-10T01:42:19.453Z,0
2017-06-10T01:43:34.762Z,0
2017-06-10T01:44:50.687Z,0
2017-06-10T01:45:59.648Z,0
2017-06-10T01:47:08.610Z,0
2017-06-10T01:48:17.568Z,0
2017-06-10T01:49:26.580Z,0
2017-06-10T01:50:35.534Z,0
2017-06-10T01:51:44.504Z,0
2017-06-10T01:52:53.465Z,0
2017-06-10T01:54:02.429Z,0
2017-06-10T01:55:11.437Z,0
2017-06-10T01:56:20.398Z,0
2017-06-10T01:57:29.355Z,0
2017-06-10T01:58:41.099Z,0
2017-06-10T01:59:50.055Z,0
2017-06-10T02:00:59.163Z,0
2017-06-10T02:02:09.466Z,0
2017-06-10T02:03:21.730Z,0
2017-06-10T02:04:33.502Z,0
2017-06-10T02:05:43.973Z,0
2017-06-10T02:06:53.888Z,0
2017-06-10T02:08:02.853Z,0
2017-06-10T02:09:11.811Z,0
2017-06-10T02:10:20.771Z,0
2017-06-10T02:11:29.815Z,0
2017-06-10T02:12:38.776Z,0
2017-06-10T02:13:47.745Z,0
2017-06-10T02:14:57.021Z,0
2017-06-10T02:16:05.974Z,0
2017-06-10T02:17:15.104Z,0
2017-06-10T02:18:24.070Z,0
2017-06-10T02:19:33.028Z,0
2017-06-10T02:20:42.011Z,0
2017-06-10T02:21:50.970Z,0
2017-06-10T02:22:59.932Z,0
2017-06-10T02:24:09.219Z,0
2017-06-10T02:25:18.178Z,0
2017-06-10T02:26:27.136Z,0
2017-06-10T02:27:36.099Z,0
2017-06-10T02:28:45.055Z,0
2017-06-10T02:29:54.068Z,0
2017-06-10T02:31:03.021Z,0
2017-06-10T02:32:11.978Z,0
2017-06-10T02:33:20.935Z,0
2017-06-10T02:34:29.898Z,0
2017-06-10T02:35:38.860Z,0
2017-06-10T02:36:47.823Z,0
2017-06-10T02:37:56.782Z,0
2017-06-10T02:39:05.741Z,0
2017-06-10T02:40:14.698Z,0
2017-06-10T02:41:23.704Z,0
2017-06-10T02:42:32.693Z,0
2017-06-10T02:43:41.652Z,0
2017-06-10T02:44:50.610Z,0
2017-06-10T02:45:59.568Z,0
2017-06-10T02:47:08.532Z,0
2017-06-10T02:48:17.497Z,0
2017-06-10T02:49:26.454Z,0
2017-06-10T02:50:35.414Z,0
2017-06-10T02:51:44.373Z,0
2017-06-10T02:52:53.328Z,0
2017-06-10T02:54:02.287Z,0
2017-06-10T02:55:11.269Z,0
2017-06-10T02:56:20.227Z,0
2017-06-10T02:57:29.185Z,0
2017-06-10T02:58:38.148Z,0
2017-06-10T02:59:47.107Z,0
2017-06-10T03:00:56.063Z,0
2017-06-10T03:02:05.026Z,0
2017-06-10T03:03:13.982Z,0
2017-06-10T03:04:23.002Z,0
2017-06-10T03:05:31.959Z,0
2017-06-10T03:06:40.918Z,0
2017-06-10T03:07:49.883Z,0
2017-06-10T03:08:59.167Z,0
2017-06-10T03:10:08.176Z,0
2017-06-10T03:11:17.220Z,0
2017-06-10T03:12:26.178Z,0
2017-06-10T03:13:35.134Z,0
2017-06-10T03:14:44.090Z,0
2017-06-10T03:15:53.132Z,0
2017-06-10T03:17:02.101Z,0
2017-06-10T03:18:11.064Z,0
2017-06-10T03:19:20.023Z,0
2017-06-10T03:20:28.979Z,0
2017-06-10T03:21:37.937Z,0
2017-06-10T03:22:46.896Z,0
2017-06-10T03:23:55.862Z,0
2017-06-10T03:25:04.820Z,0
2017-06-10T03:26:13.777Z,5
2017-06-10T03:27:22.819Z,5
2017-06-10T03:28:31.780Z,5
2017-06-10T03:29:40.736Z,5
2017-06-10T03:30:49.692Z,5
2017-06-10T03:31:58.977Z,5
2017-06-10T03:33:07.940Z,5
2017-06-10T03:34:16.902Z,5
2017-06-10T03:35:25.862Z,5
2017-06-10T03:36:34.822Z,5
2017-06-10T03:37:43.862Z,5
2017-06-10T03:38:52.869Z,5
2017-06-10T03:40:01.831Z,5
2017-06-10T03:41:10.794Z,5
2017-06-10T03:42:19.753Z,5
2017-06-10T03:43:28.714Z,5
2017-06-10T03:44:37.687Z,5
2017-06-10T03:45:46.645Z,5
2017-06-10T03:46:55.602Z,5
2017-06-10T03:48:04.559Z,5
2017-06-10T03:49:13.847Z,5
2017-06-10T03:50:22.852Z,5
2017-06-10T03:51:31.818Z,5
2017-06-10T03:52:41.608Z,5
2017-06-10T03:53:50.563Z,5
2017-06-10T03:54:59.602Z,10
2017-06-10T03:56:08.813Z,10
2017-06-10T03:57:17.769Z,10
2017-06-10T03:58:26.724Z,10
2017-06-10T03:59:35.679Z,10
2017-06-10T04:00:44.635Z,10
2017-06-10T04:01:53.846Z,10
2017-06-10T04:03:03.126Z,10
2017-06-10T04:04:12.080Z,10
2017-06-10T04:05:21.038Z,10
2017-06-10T04:06:30.000Z,10
2017-06-10T04:07:39.293Z,10
2017-06-10T04:08:48.249Z,10
2017-06-10T04:09:57.209Z,10
2017-06-10T04:11:06.168Z,10
2017-06-10T04:12:15.131Z,10
2017-06-10T04:13:24.091Z,10
2017-06-10T04:14:33.049Z,10
2017-06-10T04:15:42.003Z,10
2017-06-10T04:16:50.959Z,10
2017-06-10T04:17:59.917Z,10
2017-06-10T04:19:08.929Z,10
2017-06-10T04:20:17.887Z,10
2017-06-10T04:21:26.846Z,10
2017-06-10T04:22:35.803Z,10
2017-06-10T04:23:44.767Z,10
2017-06-10T04:24:53.773Z,10
2017-06-10T04:26:02.816Z,10
2017-06-10T04:27:11.769Z,15
2017-06-10T04:28:20.724Z,15
2017-06-10T04:29:29.682Z,15
2017-06-10T04:30:38.637Z,15
2017-06-10T04:31:47.682Z,15
2017-06-10T04:32:56.731Z,15
2017-06-10T04:34:05.720Z,15
2017-06-10T04:35:14.678Z,15
2017-06-10T04:36:23.686Z,15
2017-06-10T04:37:32.642Z,15
2017-06-10T04:38:41.598Z,15
2017-06-10T04:39:50.649Z,15
2017-06-10T04:40:59.608Z,15
2017-06-10T04:42:08.564Z,15
2017-06-10T04:43:17.519Z,15
2017-06-10T04:44:26.481Z,15
2017-06-10T04:45:35.435Z,15
2017-06-10T04:46:44.388Z,15
2017-06-10T04:47:53.391Z,15
2017-06-10T04:49:02.356Z,15
2017-06-10T04:50:11.317Z,15
2017-06-10T04:51:20.275Z,15
2017-06-10T04:52:29.231Z,20
2017-06-10T04:53:38.242Z,20
2017-06-10T04:54:47.203Z,20
2017-06-10T04:55:56.155Z,20
2017-06-10T04:57:05.110Z,20
2017-06-10T04:58:14.066Z,20
2017-06-10T04:59:23.023Z,20
2017-06-10T05:00:31.981Z,20
2017-06-10T05:01:41.351Z,20
2017-06-10T05:02:50.306Z,20
2017-06-10T05:03:59.262Z,20
2017-06-10T05:05:08.221Z,20
2017-06-10T05:06:17.180Z,20
2017-06-10T05:07:26.140Z,20
2017-06-10T05:08:35.102Z,20
2017-06-10T05:09:44.094Z,20
2017-06-10T05:10:53.052Z,20
2017-06-10T05:12:02.027Z,20
2017-06-10T05:13:10.983Z,20
2017-06-10T05:14:19.940Z,20
2017-06-10T05:15:28.897Z,20
2017-06-10T05:16:37.851Z,20
2017-06-10T05:17:46.808Z,20
2017-06-10T05:18:55.771Z,25
2017-06-10T05:20:04.735Z,25
2017-06-10T05:21:13.780Z,25
2017-06-10T05:22:22.794Z,25
2017-06-10T05:23:31.753Z,25
2017-06-10T05:24:40.708Z,25
2017-06-10T05:25:49.662Z,25
2017-06-10T05:26:58.620Z,25
2017-06-10T05:28:07.572Z,25
2017-06-10T05:29:16.613Z,25
2017-06-10T05:30:25.574Z,25
2017-06-10T05:31:34.536Z,25
2017-06-10T05:32:43.494Z,25
2017-06-10T05:33:52.448Z,25
2017-06-10T05:35:01.408Z,25
2017-06-10T05:36:10.371Z,25
2017-06-10T05:37:19.333Z,25
2017-06-10T05:38:28.290Z,30
2017-06-10T05:39:37.257Z,30
2017-06-10T05:40:46.216Z,30
2017-06-10T05:41:55.260Z,30
2017-06-10T05:43:04.247Z,30
2017-06-10T05:44:13.205Z,30
2017-06-10T05:45:22.157Z,30
2017-06-10T05:46:31.110Z,30
2017-06-10T05:47:40.068Z,30
2017-06-10T05:48:49.024Z,30
2017-06-10T05:49:57.991Z,30
2017-06-10T05:51:06.962Z,30
2017-06-10T05:52:15.921Z,35
2017-06-10T05:53:24.880Z,30
2017-06-10T05:54:33.837Z,35
2017-06-10T05:55:42.800Z,30
2017-06-10T05:56:52.092Z,30
2017-06-10T05:58:01.050Z,30
2017-06-10T05:59:10.008Z,30
2017-06-10T06:00:18.970Z,35
2017-06-10T06:01:27.927Z,30
2017-06-10T06:02:36.978Z,35
2017-06-10T06:03:45.937Z,35
2017-06-10T06:04:54.902Z,30
2017-06-10T06:06:03.861Z,30
2017-06-10T06:07:12.815Z,35
2017-06-10T06:08:21.774Z,35
2017-06-10T06:09:30.736Z,35
2017-06-10T06:10:39.692Z,35
2017-06-10T06:11:48.649Z,35
2017-06-10T06:12:57.632Z,35
2017-06-10T06:14:06.592Z,35
2017-06-10T06:15:15.574Z,40
2017-06-10T06:16:24.529Z,35
2017-06-10T06:17:33.488Z,40
2017-06-10T06:18:42.449Z,35
2017-06-10T06:19:51.414Z,35
2017-06-10T06:21:00.699Z,40
2017-06-10T06:22:09.656Z,40
2017-06-10T06:23:18.703Z,40
2017-06-10T06:24:27.658Z,40
2017-06-10T06:25:36.611Z,40
2017-06-10T06:26:45.572Z,40
2017-06-10T06:27:54.532Z,40
2017-06-10T06:29:03.493Z,40
2017-06-10T06:30:12.458Z,40
2017-06-10T06:31:21.468Z,40
2017-06-10T06:32:30.423Z,40
2017-06-10T06:33:39.469Z,40
2017-06-10T06:34:48.425Z,40
2017-06-10T06:35:57.390Z,45
2017-06-10T06:37:06.400Z,45
2017-06-10T06:38:15.366Z,45
2017-06-10T06:39:24.324Z,45
2017-06-10T06:40:33.279Z,45
2017-06-10T06:41:42.242Z,45
2017-06-10T06:42:51.252Z,45
2017-06-10T06:44:00.228Z,45
2017-06-10T06:45:09.186Z,45
2017-06-10T06:46:18.146Z,45
2017-06-10T06:47:27.106Z,45
2017-06-10T06:48:36.118Z,45
2017-06-10T06:49:45.079Z,45
2017-06-10T06:50:54.045Z,45
2017-06-10T06:52:03.011Z,50
2017-06-10T06:53:11.972Z,50
2017-06-10T06:54:20.979Z,50
2017-06-10T06:55:29.940Z,50
2017-06-10T06:56:38.907Z,50
2017-06-10T06:57:47.862Z,50
2017-06-10T06:58:56.825Z,50
2017-06-10T07:00:05.778Z,50
2017-06-10T07:01:14.742Z,50
2017-06-10T07:02:23.708Z,50
2017-06-10T07:03:32.663Z,50
2017-06-10T07:04:41.643Z,50
2017-06-10T07:05:50.601Z,55
2017-06-10T07:06:59.558Z,50
2017-06-10T07:08:08.519Z,55
2017-06-10T07:09:17.573Z,50
2017-06-10T07:10:26.532Z,55
2017-06-10T07:11:35.498Z,55
2017-06-10T07:12:44.457Z,65
2017-06-10T07:13:53.414Z,85
2017-06-10T07:15:02.374Z,55
2017-06-10T07:16:11.336Z,65
2017-06-10T07:17:20.292Z,60
2017-06-10T07:18:29.250Z,60
2017-06-10T07:19:38.212Z,60
2017-06-10T07:20:47.503Z,65
2017-06-10T07:21:56.465Z,55
2017-06-10T07:23:05.746Z,55
2017-06-10T07:24:14.706Z,55
2017-06-10T07:25:23.665Z,55
2017-06-10T07:26:32.623Z,55
2017-06-10T07:27:41.588Z,55
2017-06-10T07:28:50.545Z,55
2017-06-10T07:29:59.511Z,60
2017-06-10T07:31:08.498Z,60
2017-06-10T07:32:17.456Z,60
2017-06-10T07:33:26.507Z,60
2017-06-10T07:34:35.517Z,60
2017-06-10T07:35:44.481Z,65
2017-06-10T07:36:53.453Z,55
2017-06-10T07:38:02.412Z,60
2017-06-10T07:39:11.635Z,60
2017-06-10T07:40:20.888Z,60
2017-06-10T07:41:30.941Z,60
2017-06-10T07:42:40.704Z,55
2017-06-10T07:43:50.404Z,60
2017-06-10T07:45:00.248Z,55
2017-06-10T07:46:10.311Z,60
2017-06-10T07:47:20.847Z,60
2017-06-10T07:48:30.294Z,55
2017-06-10T07:49:40.014Z,60
2017-06-10T07:50:49.070Z,65
2017-06-10T07:51:58.648Z,65
2017-06-10T07:53:08.237Z,65
2017-06-10T07:54:18.028Z,60
2017-06-10T07:55:27.567Z,60
2017-06-10T07:56:36.538Z,70
2017-06-10T07:57:45.657Z,65
2017-06-10T07:58:54.614Z,65
2017-06-10T08:00:03.959Z,65
2017-06-10T08:01:12.921Z,65
2017-06-10T08:02:22.079Z,65
2017-06-10T08:03:31.088Z,70
2017-06-10T08:04:40.049Z,65
2017-06-10T08:05:49.017Z,65
2017-06-10T08:06:58.067Z,85
2017-06-10T08:08:07.125Z,75
2017-06-10T08:09:16.310Z,35
2017-06-10T08:10:25.657Z,40
2017-06-10T08:11:35.410Z,45
2017-06-10T08:12:45.967Z,75
2017-06-10T08:13:55.744Z,60
2017-06-10T08:15:05.587Z,55
2017-06-10T08:16:15.232Z,100
2017-06-10T08:17:25.363Z,115
2017-06-10T08:18:35.351Z,50
2017-06-10T08:19:44.956Z,35
2017-06-10T08:20:54.850Z,35
2017-06-10T08:22:03.823Z,80
2017-06-10T08:23:13.242Z,60
2017-06-10T08:24:23.073Z,35
2017-06-10T08:25:32.582Z,70
2017-06-10T08:26:41.542Z,90
2017-06-10T08:27:50.811Z,75
2017-06-10T08:29:00.161Z,80
2017-06-10T08:30:09.659Z,80
2017-06-10T08:31:19.334Z,95
2017-06-10T08:32:28.452Z,110
2017-06-10T08:33:37.551Z,110
2017-06-10T08:34:46.907Z,55
2017-06-10T08:35:55.914Z,70
2017-06-10T08:37:04.875Z,95
2017-06-10T08:38:13.833Z,110
2017-06-10T08:39:22.792Z,100
2017-06-10T08:40:31.767Z,115
2017-06-10T08:41:40.735Z,110
2017-06-10T08:42:49.690Z,130
2017-06-10T08:43:58.742Z,110
2017-06-10T08:45:07.706Z,95
2017-06-10T08:46:16.669Z,75
2017-06-10T08:47:25.629Z,70
2017-06-10T08:48:34.592Z,75
2017-06-10T08:49:43.560Z,75
2017-06-10T08:50:52.752Z,75
2017-06-10T08:52:01.986Z,75
2017-06-10T08:53:11.195Z,75
2017-06-10T08:54:20.456Z,80
2017-06-10T08:55:29.528Z,90
2017-06-10T08:56:38.663Z,105
2017-06-10T08:57:47.809Z,115
2017-06-10T08:58:57.122Z,115
2017-06-10T09:00:06.369Z,110
2017-06-10T09:01:15.680Z,40
2017-06-10T09:02:25.038Z,50
2017-06-10T09:03:34.162Z,35
2017-06-10T09:04:43.313Z,35
2017-06-10T09:05:52.397Z,80
2017-06-10T09:07:01.472Z,90
2017-06-10T09:08:10.522Z,55
2017-06-10T09:09:19.520Z,50
2017-06-10T09:10:28.485Z,95
2017-06-10T09:11:37.450Z,115
2017-06-10T09:12:46.412Z,90
2017-06-10T09:13:55.395Z,100
2017-06-10T09:15:04.364Z,110
2017-06-10T09:16:13.850Z,115
2017-06-10T09:17:23.032Z,120
2017-06-10T09:18:32.110Z,115
2017-06-10T09:19:41.154Z,110
2017-06-10T09:20:50.183Z,100
2017-06-10T09:21:59.379Z,110
2017-06-10T09:23:08.407Z,95
2017-06-10T09:24:17.494Z,75
2017-06-10T09:25:26.515Z,75
2017-06-10T09:26:35.568Z,75
2017-06-10T09:27:44.846Z,80
2017-06-10T09:28:53.865Z,80
2017-06-10T09:30:02.971Z,80
2017-06-10T09:31:12.730Z,90
2017-06-10T09:32:21.781Z,100
2017-06-10T09:33:30.835Z,120
2017-06-10T09:34:40.132Z,65
2017-06-10T09:35:49.427Z,35
2017-06-10T09:36:58.558Z,30
2017-06-10T09:38:07.526Z,65
2017-06-10T09:39:16.501Z,75
2017-06-10T09:40:25.651Z,70
2017-06-10T09:41:34.784Z,70
2017-06-10T09:42:43.785Z,70
2017-06-10T09:43:52.791Z,70
2017-06-10T09:45:01.819Z,75
2017-06-10T09:46:10.907Z,80
2017-06-10T09:47:19.866Z,85
2017-06-10T09:48:28.832Z,100
2017-06-10T09:49:37.954Z,105
2017-06-10T09:50:46.920Z,105
2017-06-10T09:51:56.022Z,130
2017-06-10T09:53:05.199Z,100
2017-06-10T09:54:14.160Z,95
2017-06-10T09:55:23.132Z,100
2017-06-10T09:56:32.097Z,85
2017-06-10T09:57:41.060Z,90
2017-06-10T09:58:50.072Z,85
2017-06-10T09:59:59.121Z,60
2017-06-10T10:01:08.083Z,75
2017-06-10T10:02:17.048Z,85
2017-06-10T10:03:26.001Z,100
2017-06-10T10:04:34.962Z,65
2017-06-10T10:05:43.928Z,80
2017-06-10T10:06:52.894Z,75
2017-06-10T10:08:01.851Z,70
2017-06-10T10:09:10.813Z,75
2017-06-10T10:10:20.160Z,60
2017-06-10T10:11:29.123Z,50
2017-06-10T10:12:38.179Z,75
2017-06-10T10:13:47.155Z,75
2017-06-10T10:14:56.116Z,70
2017-06-10T10:16:05.080Z,70
2017-06-10T10:17:14.043Z,75
2017-06-10T10:18:23.002Z,50
2017-06-10T10:19:31.968Z,50
2017-06-10T10:20:41.413Z,100
2017-06-10T10:21:50.377Z,100
2017-06-10T10:22:59.349Z,100
2017-06-10T10:24:08.412Z,95
2017-06-10T10:25:17.465Z,70
2017-06-10T10:26:26.428Z,70
2017-06-10T10:27:35.715Z,70
2017-06-10T10:28:44.678Z,65
2017-06-10T10:29:53.641Z,65
2017-06-10T10:31:02.622Z,70
2017-06-10T10:32:11.675Z,65
2017-06-10T10:33:20.637Z,65
2017-06-10T10:34:29.597Z,70
2017-06-10T10:35:38.654Z,70
2017-06-10T10:36:47.941Z,60
2017-06-10T10:37:56.902Z,25
2017-06-10T10:39:05.912Z,35
2017-06-10T10:40:14.873Z,30
2017-06-10T10:41:23.833Z,35
2017-06-10T10:42:32.810Z,80
2017-06-10T10:43:41.862Z,70
2017-06-10T10:44:50.877Z,70
2017-06-10T10:45:59.861Z,70
2017-06-10T10:47:08.830Z,35
2017-06-10T10:48:18.621Z,25
2017-06-10T10:49:27.580Z,25
2017-06-10T10:50:36.546Z,30
2017-06-10T10:51:45.507Z,70
2017-06-10T10:52:54.555Z,70
2017-06-10T10:54:03.519Z,65
2017-06-10T10:55:12.482Z,70
2017-06-10T10:56:21.534Z,70
2017-06-10T10:57:30.497Z,70
2017-06-10T10:58:39.460Z,75
2017-06-10T10:59:48.519Z,75
2017-06-10T11:00:57.480Z,75
2017-06-10T11:02:06.549Z,80
2017-06-10T11:03:15.507Z,80
2017-06-10T11:04:24.469Z,30
2017-06-10T11:05:33.431Z,30
2017-06-10T11:06:42.402Z,35
2017-06-10T11:07:51.412Z,85
2017-06-10T11:09:00.374Z,85
2017-06-10T11:10:09.333Z,80
2017-06-10T11:11:18.296Z,75
2017-06-10T11:12:27.281Z,80
2017-06-10T11:13:36.294Z,85
2017-06-10T11:14:45.345Z,85
2017-06-10T11:15:54.311Z,85
2017-06-10T11:17:03.274Z,85
2017-06-10T11:18:12.242Z,85
2017-06-10T11:19:21.203Z,75
2017-06-10T11:20:30.191Z,50
2017-06-10T11:21:39.153Z,55
2017-06-10T11:22:48.121Z,55
2017-06-10T11:23:57.087Z,50
2017-06-10T11:25:06.103Z,45
2017-06-10T11:26:15.091Z,40
2017-06-10T11:27:24.057Z,35
2017-06-10T11:28:33.281Z,40
2017-06-10T11:29:42.238Z,70
2017-06-10T11:30:51.288Z,55
2017-06-10T11:32:00.252Z,55
2017-06-10T11:33:09.226Z,60
2017-06-10T11:34:18.190Z,55
2017-06-10T11:35:27.182Z,55
2017-06-10T11:36:36.230Z,65
2017-06-10T11:37:45.532Z,105
2017-06-10T11:38:54.493Z,90
2017-06-10T11:40:03.463Z,90
2017-06-10T11:41:12.423Z,85
2017-06-10T11:42:21.386Z,80
2017-06-10T11:43:30.348Z,75
2017-06-10T11:44:39.311Z,75
2017-06-10T11:45:48.284Z,75
2017-06-10T11:46:57.247Z,75
2017-06-10T11:48:06.213Z,80
2017-06-10T11:49:15.179Z,75
2017-06-10T11:50:24.139Z,75
2017-06-10T11:51:33.130Z,75
2017-06-10T11:52:42.095Z,70
2017-06-10T11:53:51.053Z,70
2017-06-10T11:55:00.016Z,30
2017-06-10T11:56:08.975Z,30
2017-06-10T11:57:17.938Z,65
2017-06-10T11:58:26.906Z,65
2017-06-10T11:59:36.195Z,65
2017-06-10T12:00:45.159Z,55
2017-06-10T12:01:54.157Z,25
2017-06-10T12:03:03.122Z,25
2017-06-10T12:04:12.171Z,30
2017-06-10T12:05:21.131Z,35
2017-06-10T12:06:30.100Z,85
2017-06-10T12:07:39.078Z,85
2017-06-10T12:08:48.039Z,90
2017-06-10T12:09:57.002Z,90
2017-06-10T12:11:05.967Z,95
2017-06-10T12:12:15.157Z,80
2017-06-10T12:13:24.161Z,75
2017-06-10T12:14:33.220Z,70
2017-06-10T12:15:42.181Z,70
2017-06-10T12:16:51.141Z,70
2017-06-10T12:18:00.103Z,70
2017-06-10T12:19:09.071Z,70
2017-06-10T12:20:18.033Z,70
2017-06-10T12:21:26.996Z,70
2017-06-10T12:22:35.956Z,65
2017-06-10T12:23:45.012Z,70
2017-06-10T12:24:54.011Z,60
2017-06-10T12:26:02.975Z,60
2017-06-10T12:27:11.938Z,70
2017-06-10T12:28:20.899Z,40
2017-06-10T12:29:29.863Z,35
2017-06-10T12:30:38.826Z,40
2017-06-10T12:31:47.806Z,40
2017-06-10T12:32:56.945Z,40
2017-06-10T12:34:05.926Z,40
2017-06-10T12:35:14.886Z,50
2017-06-10T12:36:23.852Z,50
2017-06-10T12:37:32.906Z,50
2017-06-10T12:38:42.184Z,50
2017-06-10T12:39:51.179Z,50
2017-06-10T12:41:00.220Z,50
2017-06-10T12:42:09.192Z,90
2017-06-10T12:43:18.160Z,95
2017-06-10T12:44:27.121Z,95
2017-06-10T12:45:36.173Z,95
2017-06-10T12:46:45.300Z,80
2017-06-10T12:47:54.263Z,70
2017-06-10T12:49:03.334Z,35
2017-06-10T12:50:12.297Z,65
2017-06-10T12:51:21.373Z,70
2017-06-10T12:52:31.320Z,70
2017-06-10T12:53:40.407Z,70
2017-06-10T12:54:49.375Z,75
2017-06-10T12:55:58.332Z,65
2017-06-10T12:57:07.291Z,40
2017-06-10T12:58:16.250Z,60
2017-06-10T12:59:25.550Z,35
2017-06-10T13:00:34.840Z,35
2017-06-10T13:01:43.802Z,35
2017-06-10T13:02:52.906Z,40
2017-06-10T13:04:01.877Z,45
2017-06-10T13:05:11.195Z,50
2017-06-10T13:06:20.288Z,50
2017-06-10T13:07:29.253Z,50
2017-06-10T13:08:38.300Z,50
2017-06-10T13:09:47.274Z,45
2017-06-10T13:10:56.238Z,45
2017-06-10T13:12:05.207Z,45
2017-06-10T13:13:14.199Z,45
2017-06-10T13:14:23.218Z,45
2017-06-10T13:15:32.187Z,45
2017-06-10T13:16:41.158Z,45
2017-06-10T13:17:50.117Z,45
2017-06-10T13:18:59.077Z,50
2017-06-10T13:20:08.377Z,50
2017-06-10T13:21:17.469Z,50
2017-06-10T13:22:26.440Z,80
2017-06-10T13:23:35.962Z,90
2017-06-10T13:24:45.273Z,60
2017-06-10T13:25:54.246Z,70
2017-06-10T13:27:03.212Z,50
2017-06-10T13:28:12.257Z,45
2017-06-10T13:29:21.553Z,45
2017-06-10T13:30:30.524Z,45
2017-06-10T13:31:39.487Z,40
2017-06-10T13:32:48.536Z,55
2017-06-10T13:33:57.497Z,80
2017-06-10T13:35:06.454Z,80
2017-06-10T13:36:15.413Z,75
2017-06-10T13:37:24.376Z,80
2017-06-10T13:38:33.336Z,80
2017-06-10T13:39:42.298Z,80
2017-06-10T13:40:51.262Z,80
2017-06-10T13:42:00.251Z,75
2017-06-10T13:43:10.068Z,75
2017-06-10T13:44:19.258Z,55
2017-06-10T13:45:28.222Z,45
2017-06-10T13:46:37.191Z,90
2017-06-10T13:47:46.204Z,85
2017-06-10T13:48:55.164Z,85
2017-06-10T13:50:04.129Z,80
2017-06-10T13:51:13.098Z,45
2017-06-10T13:52:22.061Z,50
2017-06-10T13:53:31.054Z,55
2017-06-10T13:54:40.144Z,60
2017-06-10T13:55:49.114Z,60
2017-06-10T13:56:59.162Z,60
2017-06-10T13:58:08.116Z,60
2017-06-10T13:59:17.075Z,85
2017-06-10T14:00:26.087Z,100
2017-06-10T14:01:35.054Z,105
2017-06-10T14:02:44.051Z,110
2017-06-10T14:03:53.012Z,85
2017-06-10T14:05:01.981Z,75
2017-06-10T14:06:10.992Z,85
2017-06-10T14:07:19.962Z,95
2017-06-10T14:08:29.017Z,95
2017-06-10T14:09:38.067Z,45
2017-06-10T14:10:47.033Z,40
2017-06-10T14:11:55.995Z,40
2017-06-10T14:13:04.968Z,35
2017-06-10T14:14:13.930Z,35
2017-06-10T14:15:22.907Z,40
2017-06-10T14:16:31.870Z,80
2017-06-10T14:17:40.834Z,40
2017-06-10T14:18:49.791Z,45
2017-06-10T14:19:58.984Z,45
2017-06-10T14:21:07.951Z,85
2017-06-10T14:22:16.938Z,75
2017-06-10T14:23:25.979Z,45
2017-06-10T14:24:34.942Z,45
2017-06-10T14:25:43.949Z,60
2017-06-10T14:26:53.236Z,75
2017-06-10T14:28:02.199Z,80
2017-06-10T14:29:11.176Z,75
2017-06-10T14:30:20.258Z,75
2017-06-10T14:31:29.223Z,50
2017-06-10T14:32:38.190Z,85
2017-06-10T14:33:47.154Z,85
2017-06-10T14:34:56.210Z,90
2017-06-10T14:36:05.170Z,90
2017-06-10T14:37:14.133Z,90
2017-06-10T14:38:23.100Z,90
2017-06-10T14:39:32.068Z,95
2017-06-10T14:40:41.098Z,75
2017-06-10T14:41:50.060Z,60
2017-06-10T14:42:59.026Z,40
2017-06-10T14:44:07.995Z,40
2017-06-10T14:45:16.966Z,45
2017-06-10T14:46:26.251Z,75
2017-06-10T14:47:35.224Z,75
2017-06-10T14:48:44.186Z,45
2017-06-10T14:49:53.158Z,45
2017-06-10T14:51:02.121Z,45
2017-06-10T14:52:11.137Z,80
2017-06-10T14:53:20.110Z,80
2017-06-10T14:54:29.073Z,85
2017-06-10T14:55:38.125Z,85
2017-06-10T14:56:47.091Z,50
2017-06-10T14:57:56.056Z,75
2017-06-10T14:59:05.017Z,75
2017-06-10T15:00:13.984Z,70
2017-06-10T15:01:22.946Z,60
2017-06-10T15:02:32.239Z,60
2017-06-10T15:03:41.204Z,60
2017-06-10T15:04:50.194Z,65
2017-06-10T15:05:59.161Z,60
2017-06-10T15:07:08.122Z,60
2017-06-10T15:08:17.086Z,60
2017-06-10T15:09:26.053Z,60
2017-06-10T15:10:35.054Z,55
2017-06-10T15:11:44.027Z,55
2017-06-10T15:12:53.103Z,55
2017-06-10T15:14:02.065Z,60
2017-06-10T15:15:11.034Z,60
2017-06-10T15:16:20.017Z,60
2017-06-10T15:17:28.979Z,60
2017-06-10T15:18:37.944Z,60
2017-06-10T15:19:46.907Z,60
2017-06-10T15:20:55.884Z,55
2017-06-10T15:22:04.849Z,20
2017-06-10T15:23:13.817Z,20
2017-06-10T15:24:22.872Z,20
2017-06-10T15:25:31.836Z,20
2017-06-10T15:26:40.807Z,20
2017-06-10T15:27:49.775Z,15
2017-06-10T15:28:58.735Z,15
2017-06-10T15:30:07.708Z,15
2017-06-10T15:31:16.674Z,15
2017-06-10T15:32:25.825Z,20
2017-06-10T15:33:34.789Z,20
2017-06-10T15:34:43.752Z,30
2017-06-10T15:35:52.717Z,50
2017-06-10T15:37:01.689Z,50
2017-06-10T15:38:10.703Z,50
2017-06-10T15:39:19.679Z,50
2017-06-10T15:40:28.647Z,50
2017-06-10T15:41:37.616Z,50
2017-06-10T15:42:46.586Z,45
2017-06-10T15:43:55.609Z,45
2017-06-10T15:45:04.576Z,45
2017-06-10T15:46:13.540Z,45
2017-06-10T15:47:22.501Z,45
2017-06-10T15:48:31.495Z,45
2017-06-10T15:49:40.513Z,40
2017-06-10T15:50:49.477Z,40
2017-06-10T15:51:58.445Z,40
2017-06-10T15:53:07.431Z,40
2017-06-10T15:54:16.401Z,40
2017-06-10T15:55:25.357Z,45
2017-06-10T15:56:34.337Z,40
2017-06-10T15:57:43.306Z,40
2017-06-10T15:58:52.264Z,40
2017-06-10T16:00:01.312Z,40
2017-06-10T16:01:10.282Z,30
2017-06-10T16:02:19.245Z,30
2017-06-10T16:03:28.303Z,25
2017-06-10T16:04:37.269Z,35
2017-06-10T16:05:46.232Z,30
2017-06-10T16:06:55.200Z,30
2017-06-10T16:08:04.163Z,30
2017-06-10T16:09:13.152Z,35
2017-06-10T16:10:22.114Z,40
2017-06-10T16:11:31.079Z,35
2017-06-10T16:12:40.042Z,30
2017-06-10T16:13:52.757Z,30
2017-06-10T16:15:01.721Z,25
2017-06-10T16:16:10.679Z,25
2017-06-10T16:17:19.648Z,20
2017-06-10T16:18:28.700Z,20
2017-06-10T16:19:37.795Z,20
2017-06-10T16:20:46.753Z,20
2017-06-10T16:21:56.632Z,25
2017-06-10T16:23:05.618Z,20
2017-06-10T16:24:14.618Z,20
2017-06-10T16:25:23.595Z,20
2017-06-10T16:26:32.561Z,15
2017-06-10T16:27:41.527Z,15
2017-06-10T16:28:50.496Z,20
2017-06-10T16:29:59.735Z,20
2017-06-10T16:31:08.705Z,20
2017-06-10T16:32:17.669Z,20
2017-06-10T16:33:26.869Z,20